Home   Weather   USA   Placerville   Past weeks
Flag for USA

Past Weather in Placerville, California, USA — Yesterday and Last 2 Weeks

Currently: 64 °F. Sunny. (Weather station: Placerville Airport, USA). See more current weather

Past Weather in Placerville — Graph

°F

Placerville Temperature Yesterday

Maximum temperature yesterday: 68 °F (at 1:55 pm)
Minimum temperature yesterday: 50 °F (at 5:55 am)
Average temperature yesterday: 58 °F

High & Low Weather Summary for the Past Weeks

 TemperatureHumidityPressure
High75 °F (Apr 18, 2:35 pm)87% (Apr 14, 4:35 am)30.19 "Hg (Apr 14, 4:35 am)
Low39 °F (Apr 14, 4:35 am)10% (Apr 17, 7:15 pm)29.78 "Hg (Apr 13, 5:15 am)
Average59 °F38%30.01 "Hg
* Reported Apr 6 2:15 pm — Apr 21 2:35 pm, Placerville. Weather by CustomWeather, © 2021

Note: Actual official high and low records may vary slightly from our data, if they occured in-between our weather recording intervals... More about our weather records

Placerville Weather History for the Previous 24 Hours

Scroll right to see more
 ConditionsComfort  
Time TempWeatherWind HumidityBarometerVisibility
2:35 pm
Wed, Apr 21
64 °FSunny.6 mph49%29.86 "Hg10 mi
2:15 pm64 °FSunny.3 mph49%29.86 "Hg10 mi
1:55 pm64 °FSunny.6 mph49%29.86 "Hg10 mi
1:35 pm63 °FSunny.7 mph52%29.86 "Hg10 mi
1:15 pm63 °FSunny.7 mph56%29.86 "Hg10 mi
12:55 pm63 °FSunny.8 mph52%29.87 "Hg10 mi
12:35 pm63 °FSunny.7 mph56%29.87 "Hg10 mi
12:15 pm63 °FSunny.6 mph56%29.87 "Hg10 mi
11:55 am61 °FSunny.5 mph55%29.87 "Hg10 mi
11:35 am59 °FSunny.6 mph59%29.87 "Hg10 mi
11:15 am59 °FSunny.7 mph63%29.87 "Hg9 mi
10:55 am59 °FSunny.8 mph63%29.87 "Hg10 mi
10:35 am57 °FSunny.5 mph67%29.86 "Hg10 mi
10:15 am57 °FSunny.5 mph63%29.86 "Hg10 mi
9:55 am55 °FSunny.5 mph67%29.86 "Hg10 mi
9:35 am55 °FSunny.6 mph67%29.86 "Hg10 mi
9:15 am54 °FSunny.5 mph72%29.86 "Hg10 mi
8:55 am54 °FSunny.3 mph72%29.86 "Hg10 mi
8:35 am52 °FSunny.3 mph72%29.86 "Hg10 mi
8:15 am50 °FSunny.3 mph82%29.86 "Hg10 mi
7:55 am50 °FSunny.5 mph76%29.86 "Hg10 mi
7:35 am48 °FPassing clouds.5 mph71%29.84 "Hg10 mi
7:15 am50 °FPassing clouds.3 mph71%29.84 "Hg10 mi
6:55 am48 °FSunny.No wind71%29.83 "Hg10 mi
6:35 am48 °FSunny.3 mph71%29.83 "Hg10 mi
6:15 am54 °FClear.3 mph54%29.81 "Hg10 mi
5:55 am54 °FClear.3 mph51%29.80 "Hg10 mi
5:35 am48 °FClear.No wind71%29.80 "Hg10 mi
5:15 am48 °FPassing clouds.3 mph76%29.80 "Hg10 mi
4:55 am48 °FOvercast.13 mph71%29.78 "Hg10 mi
4:35 am54 °FPassing clouds.7 mph54%29.80 "Hg10 mi
3:55 am48 °FPassing clouds.3 mph82%29.80 "Hg10 mi
3:35 am48 °FPassing clouds.5 mph76%29.80 "Hg10 mi
3:15 am48 °FClear.7 mph76%29.79 "Hg10 mi
2:55 am50 °FClear.6 mph67%29.79 "Hg10 mi
2:35 am52 °FClear.7 mph62%29.79 "Hg10 mi
2:15 am50 °FClear.7 mph71%29.79 "Hg10 mi
1:55 am52 °FClear.3 mph62%29.79 "Hg10 mi
1:35 am54 °FClear.No wind63%29.80 "Hg10 mi
1:15 am54 °FPassing clouds.No wind63%29.81 "Hg10 mi
12:55 am50 °FPassing clouds.3 mph71%29.80 "Hg10 mi
12:35 am54 °FPassing clouds.5 mph63%29.81 "Hg10 mi
12:15 am54 °FPassing clouds.10 mph63%29.80 "Hg10 mi
11:55 pm
Tue, Apr 20
52 °FPassing clouds.8 mph67%29.80 "Hg10 mi
11:35 pm52 °FPassing clouds.7 mph72%29.80 "Hg10 mi
11:15 pm50 °FPassing clouds.8 mph82%29.80 "Hg10 mi
10:55 pm50 °FPartly cloudy.9 mph82%29.81 "Hg10 mi
10:35 pm50 °FPassing clouds.6 mph82%29.83 "Hg10 mi
10:15 pm50 °FPassing clouds.7 mph82%29.83 "Hg10 mi
9:55 pm50 °FPassing clouds.3 mph82%29.84 "Hg10 mi
9:35 pm50 °FClear.No wind82%29.83 "Hg10 mi
9:15 pm50 °FClear.5 mph82%29.83 "Hg10 mi
8:55 pm52 °FPassing clouds.3 mph77%29.83 "Hg10 mi
8:35 pm54 °FPassing clouds.5 mph72%29.83 "Hg10 mi
8:15 pm55 °FClear.7 mph63%29.82 "Hg10 mi
7:55 pm57 °FClear.7 mph59%29.82 "Hg10 mi
7:35 pm57 °FSunny.7 mph55%29.82 "Hg10 mi
7:15 pm59 °FSunny.5 mph51%29.82 "Hg10 mi
6:55 pm61 °FSunny.5 mph48%29.82 "Hg10 mi
6:35 pm63 °FSunny.5 mph45%29.82 "Hg10 mi
6:15 pm63 °FSunny.7 mph42%29.82 "Hg10 mi
5:55 pm64 °FSunny.8 mph40%29.82 "Hg10 mi
5:35 pm64 °FSunny.No wind40%29.83 "Hg10 mi
5:15 pm64 °FSunny.7 mph43%29.83 "Hg10 mi
4:55 pm64 °FSunny.8 mph40%29.83 "Hg10 mi
4:35 pm66 °FSunny.10 mph37%29.83 "Hg10 mi
4:15 pm66 °FSunny.9 mph35%29.83 "Hg10 mi
3:55 pm68 °FSunny.9 mph33%29.84 "Hg10 mi
3:35 pm66 °FSunny.9 mph32%29.84 "Hg10 mi
3:15 pm66 °FSunny.9 mph35%29.85 "Hg10 mi
Weather by CustomWeather, © 2021

See weather overview